Terminal Aerodrome Forecast
Issued by NWS Bismarck, ND

Home | Current Version | Previous Version | Graphics & Text | Print | Product List | Glossary On
Versions: 1 2 3 4 5 6 7 8 9 10 11 12 13 14 15 16 17 18 19 20
000
FTUS43 KBIS 292332
TAFBIS
TAF
KBIS 292332Z 3000/3024 VRB05KT P6SM SCT100
     FM300300 08005KT P6SM SCT100
     FM301000 10007KT P6SM VCSH BKN070 OVC100
     FM301500 14010KT P6SM VCSH SCT060 BKN100
     FM302000 17010KT P6SM -SHRA BKN060 OVC100=

USA.gov is the U.S. government's official web portal to all federal, state and local government web resources and services.